sensor_id;sensor_type;location;lat;lon;timestamp;pressure;altitude;pressure_sealevel;temperature
25514;BMP180;48128;54.242;10.280;2023-02-28T00:00:13;102769.00;;;3.10
25514;BMP180;48128;54.242;10.280;2023-02-28T00:03:26;102760.00;;;3.10
25514;BMP180;48128;54.242;10.280;2023-02-28T00:05:59;102758.00;;;3.10
25514;BMP180;48128;54.242;10.280;2023-02-28T00:08:40;102752.00;;;3.10
25514;BMP180;48128;54.242;10.280;2023-02-28T00:11:11;102757.00;;;3.10
25514;BMP180;48128;54.242;10.280;2023-02-28T00:13:42;102763.00;;;3.10
25514;BMP180;48128;54.242;10.280;2023-02-28T00:16:15;102746.00;;;3.10
25514;BMP180;48128;54.242;10.280;2023-02-28T00:18:42;102753.00;;;3.10
25514;BMP180;48128;54.242;10.280;2023-02-28T00:21:12;102760.00;;;3.10
25514;BMP180;48128;54.242;10.280;2023-02-28T00:23:42;102751.00;;;3.10
25514;BMP180;48128;54.242;10.280;2023-02-28T00:26:10;102752.00;;;3.10
25514;BMP180;48128;54.242;10.280;2023-02-28T00:28:37;102744.00;;;3.10
25514;BMP180;48128;54.242;10.280;2023-02-28T00:31:04;102751.00;;;3.10
25514;BMP180;48128;54.242;10.280;2023-02-28T00:33:31;102742.00;;;3.00
25514;BMP180;48128;54.242;10.280;2023-02-28T00:36:07;102735.00;;;3.00
25514;BMP180;48128;54.242;10.280;2023-02-28T00:38:34;102742.00;;;3.00
25514;BMP180;48128;54.242;10.280;2023-02-28T00:41:02;102744.00;;;3.00
25514;BMP180;48128;54.242;10.280;2023-02-28T00:43:35;102747.00;;;3.00
25514;BMP180;48128;54.242;10.280;2023-02-28T00:46:02;102738.00;;;3.00
25514;BMP180;48128;54.242;10.280;2023-02-28T00:48:30;102752.00;;;2.90
25514;BMP180;48128;54.242;10.280;2023-02-28T00:50:57;102755.00;;;3.00
25514;BMP180;48128;54.242;10.280;2023-02-28T00:53:24;102753.00;;;2.90
25514;BMP180;48128;54.242;10.280;2023-02-28T00:55:52;102759.00;;;2.90
25514;BMP180;48128;54.242;10.280;2023-02-28T00:58:19;102760.00;;;2.90
25514;BMP180;48128;54.242;10.280;2023-02-28T01:00:50;102766.00;;;3.00
25514;BMP180;48128;54.242;10.280;2023-02-28T01:03:17;102762.00;;;2.90
25514;BMP180;48128;54.242;10.280;2023-02-28T01:05:47;102755.00;;;2.90
25514;BMP180;48128;54.242;10.280;2023-02-28T01:08:14;102766.00;;;3.00
25514;BMP180;48128;54.242;10.280;2023-02-28T01:10:41;102761.00;;;2.90
25514;BMP180;48128;54.242;10.280;2023-02-28T01:13:28;102761.00;;;3.00
25514;BMP180;48128;54.242;10.280;2023-02-28T01:15:59;102762.00;;;3.00
25514;BMP180;48128;54.242;10.280;2023-02-28T01:18:39;102751.00;;;2.90
25514;BMP180;48128;54.242;10.280;2023-02-28T01:21:33;102746.00;;;2.90
25514;BMP180;48128;54.242;10.280;2023-02-28T01:24:22;102755.00;;;2.90
25514;BMP180;48128;54.242;10.280;2023-02-28T01:27:15;102756.00;;;2.90
25514;BMP180;48128;54.242;10.280;2023-02-28T01:29:44;102752.00;;;2.90
25514;BMP180;48128;54.242;10.280;2023-02-28T01:32:17;102745.00;;;2.90
25514;BMP180;48128;54.242;10.280;2023-02-28T01:34:50;102748.00;;;2.90
25514;BMP180;48128;54.242;10.280;2023-02-28T01:37:39;102739.00;;;2.80
25514;BMP180;48128;54.242;10.280;2023-02-28T01:40:22;102734.00;;;2.80
25514;BMP180;48128;54.242;10.280;2023-02-28T01:43:26;102735.00;;;2.80
25514;BMP180;48128;54.242;10.280;2023-02-28T01:45:55;102729.00;;;2.70
25514;BMP180;48128;54.242;10.280;2023-02-28T01:48:29;102733.00;;;2.70
25514;BMP180;48128;54.242;10.280;2023-02-28T01:51:09;102726.00;;;2.70
25514;BMP180;48128;54.242;10.280;2023-02-28T01:53:56;102731.00;;;2.60
25514;BMP180;48128;54.242;10.280;2023-02-28T01:56:30;102738.00;;;2.50
25514;BMP180;48128;54.242;10.280;2023-02-28T01:59:05;102732.00;;;2.50
25514;BMP180;48128;54.242;10.280;2023-02-28T02:01:49;102741.00;;;2.30
25514;BMP180;48128;54.242;10.280;2023-02-28T02:04:26;102739.00;;;2.30
25514;BMP180;48128;54.242;10.280;2023-02-28T02:07:10;102746.00;;;2.20
25514;BMP180;48128;54.242;10.280;2023-02-28T02:34:38;102732.00;;;2.40
25514;BMP180;48128;54.242;10.280;2023-02-28T02:42:40;102738.00;;;2.40
25514;BMP180;48128;54.242;10.280;2023-02-28T02:45:12;102728.00;;;2.40
25514;BMP180;48128;54.242;10.280;2023-02-28T02:47:41;102735.00;;;2.40
25514;BMP180;48128;54.242;10.280;2023-02-28T02:50:13;102722.00;;;2.30
25514;BMP180;48128;54.242;10.280;2023-02-28T02:52:54;102728.00;;;2.30
25514;BMP180;48128;54.242;10.280;2023-02-28T02:55:31;102740.00;;;2.20
25514;BMP180;48128;54.242;10.280;2023-02-28T02:58:07;102720.00;;;2.20
25514;BMP180;48128;54.242;10.280;2023-02-28T03:00:42;102744.00;;;2.20
25514;BMP180;48128;54.242;10.280;2023-02-28T03:03:12;102730.00;;;2.20
25514;BMP180;48128;54.242;10.280;2023-02-28T03:05:46;102736.00;;;2.20
25514;BMP180;48128;54.242;10.280;2023-02-28T03:08:13;102744.00;;;2.20
25514;BMP180;48128;54.242;10.280;2023-02-28T03:10:44;102734.00;;;2.10
25514;BMP180;48128;54.242;10.280;2023-02-28T03:16:35;102738.00;;;2.10
25514;BMP180;48128;54.242;10.280;2023-02-28T03:25:07;102744.00;;;2.10
25514;BMP180;48128;54.242;10.280;2023-02-28T03:27:41;102733.00;;;2.10
25514;BMP180;48128;54.242;10.280;2023-02-28T03:33:32;102750.00;;;1.90
25514;BMP180;48128;54.242;10.280;2023-02-28T03:36:09;102736.00;;;1.90
25514;BMP180;48128;54.242;10.280;2023-02-28T03:38:41;102745.00;;;1.90
25514;BMP180;48128;54.242;10.280;2023-02-28T03:41:21;102752.00;;;1.80
25514;BMP180;48128;54.242;10.280;2023-02-28T03:43:58;102744.00;;;1.80
25514;BMP180;48128;54.242;10.280;2023-02-28T03:46:28;102745.00;;;1.70
25514;BMP180;48128;54.242;10.280;2023-02-28T03:49:05;102737.00;;;1.70
25514;BMP180;48128;54.242;10.280;2023-02-28T03:51:35;102753.00;;;1.60
25514;BMP180;48128;54.242;10.280;2023-02-28T03:54:07;102734.00;;;1.50
25514;BMP180;48128;54.242;10.280;2023-02-28T03:56:42;102741.00;;;1.40
25514;BMP180;48128;54.242;10.280;2023-02-28T03:59:14;102731.00;;;1.30
25514;BMP180;48128;54.242;10.280;2023-02-28T04:01:45;102731.00;;;1.30
25514;BMP180;48128;54.242;10.280;2023-02-28T04:04:15;102738.00;;;1.20
25514;BMP180;48128;54.242;10.280;2023-02-28T04:06:43;102737.00;;;1.10
25514;BMP180;48128;54.242;10.280;2023-02-28T04:09:13;102738.00;;;1.00
25514;BMP180;48128;54.242;10.280;2023-02-28T04:11:51;102738.00;;;0.90
25514;BMP180;48128;54.242;10.280;2023-02-28T04:14:19;102732.00;;;0.80
25514;BMP180;48128;54.242;10.280;2023-02-28T04:16:46;102726.00;;;0.80
25514;BMP180;48128;54.242;10.280;2023-02-28T04:19:14;102722.00;;;0.70
25514;BMP180;48128;54.242;10.280;2023-02-28T04:21:44;102730.00;;;0.60
25514;BMP180;48128;54.242;10.280;2023-02-28T04:27:19;102742.00;;;0.40
25514;BMP180;48128;54.242;10.280;2023-02-28T04:30:44;102737.00;;;0.40
25514;BMP180;48128;54.242;10.280;2023-02-28T04:33:17;102726.00;;;0.30
25514;BMP180;48128;54.242;10.280;2023-02-28T04:35:45;102732.00;;;0.20
25514;BMP180;48128;54.242;10.280;2023-02-28T04:38:13;102745.00;;;0.10
25514;BMP180;48128;54.242;10.280;2023-02-28T04:40:42;102728.00;;;0.10
25514;BMP180;48128;54.242;10.280;2023-02-28T04:43:10;102727.00;;;0.00
25514;BMP180;48128;54.242;10.280;2023-02-28T04:45:37;102725.00;;;0.00
25514;BMP180;48128;54.242;10.280;2023-02-28T04:48:05;102723.00;;;-0.10
25514;BMP180;48128;54.242;10.280;2023-02-28T04:50:33;102738.00;;;-0.10
25514;BMP180;48128;54.242;10.280;2023-02-28T04:53:00;102741.00;;;-0.20
25514;BMP180;48128;54.242;10.280;2023-02-28T04:55:27;102732.00;;;-0.30
25514;BMP180;48128;54.242;10.280;2023-02-28T04:57:54;102735.00;;;-0.40
25514;BMP180;48128;54.242;10.280;2023-02-28T05:00:21;102735.00;;;-0.40
25514;BMP180;48128;54.242;10.280;2023-02-28T05:02:48;102744.00;;;-0.40
25514;BMP180;48128;54.242;10.280;2023-02-28T05:05:16;102736.00;;;-0.40
25514;BMP180;48128;54.242;10.280;2023-02-28T05:07:45;102725.00;;;-0.50
25514;BMP180;48128;54.242;10.280;2023-02-28T05:10:12;102722.00;;;-0.50
25514;BMP180;48128;54.242;10.280;2023-02-28T05:12:39;102725.00;;;-0.50
25514;BMP180;48128;54.242;10.280;2023-02-28T05:15:08;102711.00;;;-0.60
25514;BMP180;48128;54.242;10.280;2023-02-28T05:17:39;102724.00;;;-0.60
25514;BMP180;48128;54.242;10.280;2023-02-28T05:20:08;102714.00;;;-0.70
25514;BMP180;48128;54.242;10.280;2023-02-28T05:22:42;102726.00;;;-0.70
25514;BMP180;48128;54.242;10.280;2023-02-28T05:25:12;102731.00;;;-0.80
25514;BMP180;48128;54.242;10.280;2023-02-28T05:27:39;102723.00;;;-0.80
25514;BMP180;48128;54.242;10.280;2023-02-28T05:30:07;102735.00;;;-0.80
25514;BMP180;48128;54.242;10.280;2023-02-28T05:32:38;102744.00;;;-0.80
25514;BMP180;48128;54.242;10.280;2023-02-28T05:35:06;102738.00;;;-0.80
25514;BMP180;48128;54.242;10.280;2023-02-28T05:37:33;102736.00;;;-0.90
25514;BMP180;48128;54.242;10.280;2023-02-28T05:40:01;102754.00;;;-1.00
25514;BMP180;48128;54.242;10.280;2023-02-28T05:42:28;102741.00;;;-1.00
25514;BMP180;48128;54.242;10.280;2023-02-28T05:44:56;102737.00;;;-1.00
25514;BMP180;48128;54.242;10.280;2023-02-28T05:47:23;102736.00;;;-1.00
25514;BMP180;48128;54.242;10.280;2023-02-28T05:49:51;102761.00;;;-1.00
25514;BMP180;48128;54.242;10.280;2023-02-28T05:52:19;102748.00;;;-1.00
25514;BMP180;48128;54.242;10.280;2023-02-28T05:54:47;102757.00;;;-1.10
25514;BMP180;48128;54.242;10.280;2023-02-28T05:57:15;102766.00;;;-1.10
25514;BMP180;48128;54.242;10.280;2023-02-28T05:59:50;102761.00;;;-1.10
25514;BMP180;48128;54.242;10.280;2023-02-28T06:02:18;102761.00;;;-1.20
25514;BMP180;48128;54.242;10.280;2023-02-28T06:04:47;102769.00;;;-1.20
25514;BMP180;48128;54.242;10.280;2023-02-28T06:07:15;102773.00;;;-1.20
25514;BMP180;48128;54.242;10.280;2023-02-28T06:09:44;102766.00;;;-1.20
25514;BMP180;48128;54.242;10.280;2023-02-28T06:12:11;102776.00;;;-1.20
25514;BMP180;48128;54.242;10.280;2023-02-28T06:14:39;102772.00;;;-1.20
25514;BMP180;48128;54.242;10.280;2023-02-28T06:17:08;102777.00;;;-1.30
25514;BMP180;48128;54.242;10.280;2023-02-28T06:19:37;102788.00;;;-1.20
25514;BMP180;48128;54.242;10.280;2023-02-28T06:22:06;102780.00;;;-1.20
25514;BMP180;48128;54.242;10.280;2023-02-28T06:24:34;102782.00;;;-1.30
25514;BMP180;48128;54.242;10.280;2023-02-28T06:27:01;102789.00;;;-1.30
25514;BMP180;48128;54.242;10.280;2023-02-28T06:29:31;102786.00;;;-1.30
25514;BMP180;48128;54.242;10.280;2023-02-28T06:31:58;102795.00;;;-1.30
25514;BMP180;48128;54.242;10.280;2023-02-28T06:34:25;102785.00;;;-1.40
25514;BMP180;48128;54.242;10.280;2023-02-28T06:36:52;102802.00;;;-1.40
25514;BMP180;48128;54.242;10.280;2023-02-28T06:39:19;102798.00;;;-1.40
25514;BMP180;48128;54.242;10.280;2023-02-28T06:41:46;102801.00;;;-1.30
25514;BMP180;48128;54.242;10.280;2023-02-28T06:44:22;102802.00;;;-1.30
25514;BMP180;48128;54.242;10.280;2023-02-28T06:46:49;102794.00;;;-1.40
25514;BMP180;48128;54.242;10.280;2023-02-28T06:49:16;102800.00;;;-1.30
25514;BMP180;48128;54.242;10.280;2023-02-28T06:51:44;102812.00;;;-1.30
25514;BMP180;48128;54.242;10.280;2023-02-28T06:54:13;102802.00;;;-1.30
25514;BMP180;48128;54.242;10.280;2023-02-28T06:56:40;102816.00;;;-1.30
25514;BMP180;48128;54.242;10.280;2023-02-28T06:59:07;102814.00;;;-1.40
25514;BMP180;48128;54.242;10.280;2023-02-28T07:01:34;102822.00;;;-1.40
25514;BMP180;48128;54.242;10.280;2023-02-28T07:04:01;102813.00;;;-1.30
25514;BMP180;48128;54.242;10.280;2023-02-28T07:06:28;102809.00;;;-1.30
25514;BMP180;48128;54.242;10.280;2023-02-28T07:08:55;102818.00;;;-1.20
25514;BMP180;48128;54.242;10.280;2023-02-28T07:11:23;102817.00;;;-1.20
25514;BMP180;48128;54.242;10.280;2023-02-28T07:13:55;102805.00;;;-1.20
25514;BMP180;48128;54.242;10.280;2023-02-28T07:16:22;102816.00;;;-1.10
25514;BMP180;48128;54.242;10.280;2023-02-28T07:18:52;102811.00;;;-1.10
25514;BMP180;48128;54.242;10.280;2023-02-28T07:21:19;102821.00;;;-1.00
25514;BMP180;48128;54.242;10.280;2023-02-28T07:23:46;102805.00;;;-1.00
25514;BMP180;48128;54.242;10.280;2023-02-28T07:26:15;102820.00;;;-0.90
25514;BMP180;48128;54.242;10.280;2023-02-28T07:28:44;102818.00;;;-0.90
25514;BMP180;48128;54.242;10.280;2023-02-28T07:31:12;102825.00;;;-0.90
25514;BMP180;48128;54.242;10.280;2023-02-28T07:33:41;102813.00;;;-0.80
25514;BMP180;48128;54.242;10.280;2023-02-28T07:36:11;102814.00;;;-0.80
25514;BMP180;48128;54.242;10.280;2023-02-28T07:38:43;102817.00;;;-0.80
25514;BMP180;48128;54.242;10.280;2023-02-28T07:41:15;102816.00;;;-0.70
25514;BMP180;48128;54.242;10.280;2023-02-28T07:43:42;102796.00;;;-0.60
25514;BMP180;48128;54.242;10.280;2023-02-28T07:46:12;102811.00;;;-0.60
25514;BMP180;48128;54.242;10.280;2023-02-28T07:48:42;102812.00;;;-0.50
25514;BMP180;48128;54.242;10.280;2023-02-28T07:51:09;102809.00;;;-0.40
25514;BMP180;48128;54.242;10.280;2023-02-28T07:53:35;102831.00;;;-0.30
25514;BMP180;48128;54.242;10.280;2023-02-28T07:56:03;102830.00;;;-0.20
25514;BMP180;48128;54.242;10.280;2023-02-28T07:58:30;102826.00;;;-0.10
25514;BMP180;48128;54.242;10.280;2023-02-28T08:00:57;102822.00;;;0.00
25514;BMP180;48128;54.242;10.280;2023-02-28T08:03:30;102815.00;;;0.00
25514;BMP180;48128;54.242;10.280;2023-02-28T08:05:57;102822.00;;;0.10
25514;BMP180;48128;54.242;10.280;2023-02-28T08:08:24;102822.00;;;0.20
25514;BMP180;48128;54.242;10.280;2023-02-28T08:11:02;102824.00;;;0.40
25514;BMP180;48128;54.242;10.280;2023-02-28T08:13:29;102828.00;;;0.60
25514;BMP180;48128;54.242;10.280;2023-02-28T08:15:56;102841.00;;;0.80
25514;BMP180;48128;54.242;10.280;2023-02-28T08:18:23;102845.00;;;0.90
25514;BMP180;48128;54.242;10.280;2023-02-28T08:20:50;102855.00;;;1.10
25514;BMP180;48128;54.242;10.280;2023-02-28T08:23:17;102863.00;;;1.20
25514;BMP180;48128;54.242;10.280;2023-02-28T08:25:44;102876.00;;;1.40
25514;BMP180;48128;54.242;10.280;2023-02-28T08:28:10;102900.00;;;1.50
25514;BMP180;48128;54.242;10.280;2023-02-28T08:30:37;102891.00;;;1.60
25514;BMP180;48128;54.242;10.280;2023-02-28T08:33:04;102913.00;;;1.70
25514;BMP180;48128;54.242;10.280;2023-02-28T08:35:31;102926.00;;;1.80
25514;BMP180;48128;54.242;10.280;2023-02-28T08:37:58;102934.00;;;2.00
25514;BMP180;48128;54.242;10.280;2023-02-28T08:40:25;102937.00;;;2.10
25514;BMP180;48128;54.242;10.280;2023-02-28T08:42:51;102947.00;;;2.20
25514;BMP180;48128;54.242;10.280;2023-02-28T08:45:18;102946.00;;;2.30
25514;BMP180;48128;54.242;10.280;2023-02-28T08:47:45;102953.00;;;2.30
25514;BMP180;48128;54.242;10.280;2023-02-28T08:50:12;102942.00;;;2.50
25514;BMP180;48128;54.242;10.280;2023-02-28T08:52:44;102949.00;;;2.60
25514;BMP180;48128;54.242;10.280;2023-02-28T08:55:11;102966.00;;;2.70
25514;BMP180;48128;54.242;10.280;2023-02-28T08:57:38;102960.00;;;2.80
25514;BMP180;48128;54.242;10.280;2023-02-28T09:00:05;102975.00;;;2.90
25514;BMP180;48128;54.242;10.280;2023-02-28T09:02:32;102985.00;;;3.00
25514;BMP180;48128;54.242;10.280;2023-02-28T09:04:59;102973.00;;;3.10
25514;BMP180;48128;54.242;10.280;2023-02-28T09:07:25;102976.00;;;3.20
25514;BMP180;48128;54.242;10.280;2023-02-28T09:09:52;102986.00;;;3.30
25514;BMP180;48128;54.242;10.280;2023-02-28T09:12:25;102977.00;;;3.40
25514;BMP180;48128;54.242;10.280;2023-02-28T09:14:53;102971.00;;;3.50
25514;BMP180;48128;54.242;10.280;2023-02-28T09:17:20;102979.00;;;3.60
25514;BMP180;48128;54.242;10.280;2023-02-28T09:19:48;102975.00;;;3.60
25514;BMP180;48128;54.242;10.280;2023-02-28T09:22:15;102990.00;;;3.70
25514;BMP180;48128;54.242;10.280;2023-02-28T09:24:43;102999.00;;;3.80
25514;BMP180;48128;54.242;10.280;2023-02-28T09:27:11;103005.00;;;3.90
25514;BMP180;48128;54.242;10.280;2023-02-28T09:29:38;103010.00;;;4.00
25514;BMP180;48128;54.242;10.280;2023-02-28T09:32:04;103021.00;;;4.10
25514;BMP180;48128;54.242;10.280;2023-02-28T09:34:32;103016.00;;;4.20
25514;BMP180;48128;54.242;10.280;2023-02-28T09:36:59;103022.00;;;4.30
25514;BMP180;48128;54.242;10.280;2023-02-28T09:39:26;103028.00;;;4.40
25514;BMP180;48128;54.242;10.280;2023-02-28T09:41:54;103040.00;;;4.60
25514;BMP180;48128;54.242;10.280;2023-02-28T09:44:31;103038.00;;;4.70
25514;BMP180;48128;54.242;10.280;2023-02-28T09:49:43;103047.00;;;5.00
25514;BMP180;48128;54.242;10.280;2023-02-28T09:52:21;103036.00;;;5.10
25514;BMP180;48128;54.242;10.280;2023-02-28T09:54:49;103039.00;;;5.20
25514;BMP180;48128;54.242;10.280;2023-02-28T09:57:34;103053.00;;;5.30
25514;BMP180;48128;54.242;10.280;2023-02-28T10:03:14;103058.00;;;5.50
25514;BMP180;48128;54.242;10.280;2023-02-28T10:06:08;103061.00;;;5.70
25514;BMP180;48128;54.242;10.280;2023-02-28T10:09:31;103076.00;;;5.80
25514;BMP180;48128;54.242;10.280;2023-02-28T10:11:51;103059.00;;;5.90
25514;BMP180;48128;54.242;10.280;2023-02-28T10:14:24;103072.00;;;6.00
25514;BMP180;48128;54.242;10.280;2023-02-28T10:17:08;103056.00;;;6.10
25514;BMP180;48128;54.242;10.280;2023-02-28T10:19:40;103075.00;;;6.20
25514;BMP180;48128;54.242;10.280;2023-02-28T10:22:14;103089.00;;;6.30
25514;BMP180;48128;54.242;10.280;2023-02-28T10:24:52;103090.00;;;6.40
25514;BMP180;48128;54.242;10.280;2023-02-28T10:27:24;103092.00;;;6.50
25514;BMP180;48128;54.242;10.280;2023-02-28T10:29:56;103089.00;;;6.70
25514;BMP180;48128;54.242;10.280;2023-02-28T10:32:26;103089.00;;;6.80
25514;BMP180;48128;54.242;10.280;2023-02-28T10:37:24;103079.00;;;7.10
25514;BMP180;48128;54.242;10.280;2023-02-28T10:39:51;103097.00;;;7.10
25514;BMP180;48128;54.242;10.280;2023-02-28T10:42:28;103101.00;;;7.20
25514;BMP180;48128;54.242;10.280;2023-02-28T10:45:32;103095.00;;;7.30
25514;BMP180;48128;54.242;10.280;2023-02-28T10:56:12;103101.00;;;7.60
25514;BMP180;48128;54.242;10.280;2023-02-28T11:03:49;103079.00;;;7.80
25514;BMP180;48128;54.242;10.280;2023-02-28T11:06:31;103068.00;;;8.00
25514;BMP180;48128;54.242;10.280;2023-02-28T11:09:00;103064.00;;;8.00
25514;BMP180;48128;54.242;10.280;2023-02-28T11:11:28;103052.00;;;8.10
25514;BMP180;48128;54.242;10.280;2023-02-28T11:14:04;103080.00;;;8.20
25514;BMP180;48128;54.242;10.280;2023-02-28T11:16:34;103063.00;;;8.30
25514;BMP180;48128;54.242;10.280;2023-02-28T11:19:02;103064.00;;;8.40
25514;BMP180;48128;54.242;10.280;2023-02-28T11:21:32;103050.00;;;8.50
25514;BMP180;48128;54.242;10.280;2023-02-28T11:24:26;103059.00;;;8.60
25514;BMP180;48128;54.242;10.280;2023-02-28T11:26:53;103040.00;;;8.70
25514;BMP180;48128;54.242;10.280;2023-02-28T11:29:30;103056.00;;;8.80
25514;BMP180;48128;54.242;10.280;2023-02-28T11:32:18;103038.00;;;8.90
25514;BMP180;48128;54.242;10.280;2023-02-28T11:34:46;103054.00;;;9.10
25514;BMP180;48128;54.242;10.280;2023-02-28T11:37:18;103034.00;;;9.20
25514;BMP180;48128;54.242;10.280;2023-02-28T11:39:45;103039.00;;;9.40
25514;BMP180;48128;54.242;10.280;2023-02-28T11:45:37;103069.00;;;9.60
25514;BMP180;48128;54.242;10.280;2023-02-28T11:48:22;103050.00;;;9.60
25514;BMP180;48128;54.242;10.280;2023-02-28T11:51:28;103046.00;;;9.50
25514;BMP180;48128;54.242;10.280;2023-02-28T11:56:44;103070.00;;;9.50
25514;BMP180;48128;54.242;10.280;2023-02-28T12:10:28;103047.00;;;9.80
25514;BMP180;48128;54.242;10.280;2023-02-28T12:13:21;103057.00;;;9.60
25514;BMP180;48128;54.242;10.280;2023-02-28T12:16:16;103039.00;;;9.60
25514;BMP180;48128;54.242;10.280;2023-02-28T12:22:05;103028.00;;;9.70
25514;BMP180;48128;54.242;10.280;2023-02-28T12:27:40;103022.00;;;9.60
25514;BMP180;48128;54.242;10.280;2023-02-28T12:30:28;103023.00;;;9.60
25514;BMP180;48128;54.242;10.280;2023-02-28T12:35:34;103006.00;;;9.80
25514;BMP180;48128;54.242;10.280;2023-02-28T12:38:13;102996.00;;;10.00
25514;BMP180;48128;54.242;10.280;2023-02-28T12:41:01;103028.00;;;10.10
25514;BMP180;48128;54.242;10.280;2023-02-28T12:43:43;102992.00;;;10.20
25514;BMP180;48128;54.242;10.280;2023-02-28T12:46:44;103003.00;;;10.20
25514;BMP180;48128;54.242;10.280;2023-02-28T12:49:44;102979.00;;;10.30
25514;BMP180;48128;54.242;10.280;2023-02-28T12:52:13;102980.00;;;10.50
25514;BMP180;48128;54.242;10.280;2023-02-28T12:55:04;103009.00;;;10.40
25514;BMP180;48128;54.242;10.280;2023-02-28T12:57:41;102987.00;;;10.40
25514;BMP180;48128;54.242;10.280;2023-02-28T13:00:20;102965.00;;;10.40
25514;BMP180;48128;54.242;10.280;2023-02-28T13:08:35;102973.00;;;10.50
25514;BMP180;48128;54.242;10.280;2023-02-28T13:11:17;102990.00;;;10.40
25514;BMP180;48128;54.242;10.280;2023-02-28T13:13:55;102941.00;;;10.40
25514;BMP180;48128;54.242;10.280;2023-02-28T13:16:23;102969.00;;;10.40
25514;BMP180;48128;54.242;10.280;2023-02-28T13:18:50;102933.00;;;10.40
25514;BMP180;48128;54.242;10.280;2023-02-28T13:34:36;102974.00;;;10.40
25514;BMP180;48128;54.242;10.280;2023-02-28T13:39:59;102972.00;;;10.40
25514;BMP180;48128;54.242;10.280;2023-02-28T14:02:00;102953.00;;;10.30
25514;BMP180;48128;54.242;10.280;2023-02-28T14:07:17;102946.00;;;10.10
25514;BMP180;48128;54.242;10.280;2023-02-28T14:09:49;102928.00;;;10.10
25514;BMP180;48128;54.242;10.280;2023-02-28T14:15:40;102926.00;;;10.10
25514;BMP180;48128;54.242;10.280;2023-02-28T14:18:22;102903.00;;;10.00
25514;BMP180;48128;54.242;10.280;2023-02-28T14:20:56;102909.00;;;10.00
25514;BMP180;48128;54.242;10.280;2023-02-28T14:23:33;102915.00;;;10.00
25514;BMP180;48128;54.242;10.280;2023-02-28T14:26:10;102921.00;;;9.90
25514;BMP180;48128;54.242;10.280;2023-02-28T14:31:13;102904.00;;;9.80
25514;BMP180;48128;54.242;10.280;2023-02-28T14:33:57;102907.00;;;9.70
25514;BMP180;48128;54.242;10.280;2023-02-28T14:36:27;102903.00;;;9.50
25514;BMP180;48128;54.242;10.280;2023-02-28T14:39:07;102904.00;;;9.40
25514;BMP180;48128;54.242;10.280;2023-02-28T14:41:37;102913.00;;;9.40
25514;BMP180;48128;54.242;10.280;2023-02-28T14:44:23;102899.00;;;9.30
25514;BMP180;48128;54.242;10.280;2023-02-28T14:46:54;102877.00;;;9.20
25514;BMP180;48128;54.242;10.280;2023-02-28T14:49:35;102890.00;;;9.10
25514;BMP180;48128;54.242;10.280;2023-02-28T14:52:07;102856.00;;;9.10
25514;BMP180;48128;54.242;10.280;2023-02-28T14:54:38;102876.00;;;9.00
25514;BMP180;48128;54.242;10.280;2023-02-28T14:57:05;102889.00;;;8.90
25514;BMP180;48128;54.242;10.280;2023-02-28T14:59:34;102866.00;;;8.80
25514;BMP180;48128;54.242;10.280;2023-02-28T15:02:23;102855.00;;;8.70
25514;BMP180;48128;54.242;10.280;2023-02-28T15:04:59;102856.00;;;8.60
25514;BMP180;48128;54.242;10.280;2023-02-28T15:07:27;102826.00;;;8.60
25514;BMP180;48128;54.242;10.280;2023-02-28T15:10:29;102850.00;;;8.50
25514;BMP180;48128;54.242;10.280;2023-02-28T15:15:41;102849.00;;;8.20
25514;BMP180;48128;54.242;10.280;2023-02-28T15:21:18;102843.00;;;8.00
25514;BMP180;48128;54.242;10.280;2023-02-28T15:23:49;102826.00;;;7.90
25514;BMP180;48128;54.242;10.280;2023-02-28T15:26:19;102828.00;;;7.80
25514;BMP180;48128;54.242;10.280;2023-02-28T15:28:50;102826.00;;;7.80
25514;BMP180;48128;54.242;10.280;2023-02-28T15:31:32;102820.00;;;7.70
25514;BMP180;48128;54.242;10.280;2023-02-28T15:34:22;102816.00;;;7.60
25514;BMP180;48128;54.242;10.280;2023-02-28T15:36:54;102818.00;;;7.50
25514;BMP180;48128;54.242;10.280;2023-02-28T15:39:25;102802.00;;;7.50
25514;BMP180;48128;54.242;10.280;2023-02-28T15:42:31;102820.00;;;7.40
25514;BMP180;48128;54.242;10.280;2023-02-28T15:44:58;102815.00;;;7.30
25514;BMP180;48128;54.242;10.280;2023-02-28T15:47:27;102791.00;;;7.30
25514;BMP180;48128;54.242;10.280;2023-02-28T15:49:58;102801.00;;;7.20
25514;BMP180;48128;54.242;10.280;2023-02-28T15:54:55;102797.00;;;7.10
25514;BMP180;48128;54.242;10.280;2023-02-28T15:57:24;102793.00;;;7.00
25514;BMP180;48128;54.242;10.280;2023-02-28T15:59:56;102808.00;;;6.90
25514;BMP180;48128;54.242;10.280;2023-02-28T16:02:37;102811.00;;;6.90
25514;BMP180;48128;54.242;10.280;2023-02-28T16:07:42;102792.00;;;6.80
25514;BMP180;48128;54.242;10.280;2023-02-28T16:10:11;102788.00;;;6.80
25514;BMP180;48128;54.242;10.280;2023-02-28T16:12:41;102790.00;;;6.60
25514;BMP180;48128;54.242;10.280;2023-02-28T16:15:16;102776.00;;;6.60
25514;BMP180;48128;54.242;10.280;2023-02-28T16:17:43;102791.00;;;6.50
25514;BMP180;48128;54.242;10.280;2023-02-28T16:20:33;102770.00;;;6.40
25514;BMP180;48128;54.242;10.280;2023-02-28T16:22:59;102789.00;;;6.30
25514;BMP180;48128;54.242;10.280;2023-02-28T16:25:35;102772.00;;;6.20
25514;BMP180;48128;54.242;10.280;2023-02-28T16:28:02;102773.00;;;6.10
25514;BMP180;48128;54.242;10.280;2023-02-28T16:30:30;102775.00;;;5.90
25514;BMP180;48128;54.242;10.280;2023-02-28T16:32:58;102767.00;;;5.80
25514;BMP180;48128;54.242;10.280;2023-02-28T16:35:25;102762.00;;;5.70
25514;BMP180;48128;54.242;10.280;2023-02-28T16:37:52;102758.00;;;5.60
25514;BMP180;48128;54.242;10.280;2023-02-28T16:40:24;102756.00;;;5.50
25514;BMP180;48128;54.242;10.280;2023-02-28T16:42:58;102739.00;;;5.40
25514;BMP180;48128;54.242;10.280;2023-02-28T16:45:28;102746.00;;;5.20
25514;BMP180;48128;54.242;10.280;2023-02-28T16:47:55;102738.00;;;5.10
25514;BMP180;48128;54.242;10.280;2023-02-28T16:50:24;102745.00;;;5.10
25514;BMP180;48128;54.242;10.280;2023-02-28T16:52:51;102738.00;;;5.00
25514;BMP180;48128;54.242;10.280;2023-02-28T16:55:18;102730.00;;;4.90
25514;BMP180;48128;54.242;10.280;2023-02-28T16:57:49;102742.00;;;4.80